Time;durP1;ratioP1;P1;durP2;ratioP2;P2;SDS_P1;SDS_P2;PMS_P1;PMS_P2;Temp;Humidity;BMP_temperature;BMP_pressure;BME280_temperature;BME280_humidity;BME280_pressure;Samples;Min_cycle;Max_cycle;Signal;HPM_P1;HPM_P2
2022/10/12 00:01:21;;;;;;;56.63;28.70;;;13.10;99.90;;;;;;5050638;28;20301;-74
2022/10/12 00:03:47;;;;;;;62.87;29.50;;;13.20;99.90;;;;;;5050624;28;20202;-74
2022/10/12 00:06:23;;;;;;;57.67;29.80;;;13.20;99.90;;;;;;5050665;28;20566;-74
2022/10/12 00:08:50;;;;;;;47.27;26.77;;;13.20;99.90;;;;;;5049054;28;20219;-74
2022/10/12 00:11:20;;;;;;;48.03;27.53;;;13.20;99.90;;;;;;5049174;28;20467;-74
2022/10/12 00:13:46;;;;;;;49.93;27.97;;;13.30;99.90;;;;;;5050494;28;20914;-74
2022/10/12 00:16:13;;;;;;;47.30;23.47;;;13.20;99.90;;;;;;5050450;28;20418;-74
2022/10/12 00:18:38;;;;;;;48.70;25.07;;;13.20;99.90;;;;;;5050304;28;20186;-74
2022/10/12 00:21:07;;;;;;;42.50;25.40;;;13.20;99.90;;;;;;5050227;28;20451;-74
2022/10/12 00:23:34;;;;;;;43.47;24.50;;;13.20;99.90;;;;;;5050589;28;20670;-75
2022/10/12 00:26:02;;;;;;;65.57;29.13;;;13.20;99.90;;;;;;5050313;28;20631;-75
2022/10/12 00:28:28;;;;;;;54.70;26.43;;;13.20;99.90;;;;;;5050160;28;20898;-73
2022/10/12 00:30:53;;;;;;;54.40;27.70;;;13.20;99.90;;;;;;5050119;28;20418;-73
2022/10/12 00:33:19;;;;;;;46.33;26.70;;;13.10;99.90;;;;;;5049957;28;20190;-73
2022/10/12 00:35:44;;;;;;;55.40;25.40;;;13.10;99.90;;;;;;5050119;28;20218;-76
2022/10/12 00:38:10;;;;;;;50.13;27.13;;;13.10;99.90;;;;;;5048488;28;20191;-75
2022/10/12 00:40:36;;;;;;;52.37;27.10;;;13.00;99.90;;;;;;5049959;28;20600;-74
2022/10/12 00:43:02;;;;;;;49.43;26.90;;;13.00;99.90;;;;;;5049924;28;20503;-74
2022/10/12 00:45:28;;;;;;;47.80;26.73;;;13.00;99.90;;;;;;5049726;28;20215;-74
2022/10/12 00:47:58;;;;;;;52.70;27.10;;;13.00;99.90;;;;;;5049688;28;20324;-74
2022/10/12 00:50:29;;;;;;;50.73;26.37;;;12.90;99.90;;;;;;5049834;28;20496;-74
2022/10/12 00:53:02;;;;;;;57.87;27.70;;;12.90;99.90;;;;;;5048166;28;20433;-74
2022/10/12 00:55:33;;;;;;;38.20;23.97;;;12.90;99.90;;;;;;5049735;28;20441;-73
2022/10/12 00:57:59;;;;;;;48.50;28.10;;;12.90;99.90;;;;;;5047898;28;20456;-74
2022/10/12 01:00:25;;;;;;;51.40;27.83;;;12.80;99.90;;;;;;5049601;28;20425;-74
2022/10/12 01:02:53;;;;;;;58.63;29.23;;;12.60;99.90;;;;;;5048973;28;20445;-73
2022/10/12 01:05:20;;;;;;;59.53;29.80;;;12.50;99.90;;;;;;5048898;28;20210;-73
2022/10/12 01:07:45;;;;;;;62.67;28.13;;;12.40;99.90;;;;;;5049518;28;20421;-74
2022/10/12 01:10:12;;;;;;;46.70;26.27;;;12.40;99.90;;;;;;5049340;28;20974;-74
2022/10/12 01:12:41;;;;;;;65.00;30.10;;;12.30;99.90;;;;;;5049454;28;20794;-73
2022/10/12 01:15:08;;;;;;;51.93;27.77;;;12.40;99.90;;;;;;5049238;28;20451;-73
2022/10/12 01:17:42;;;;;;;67.40;28.30;;;12.30;99.90;;;;;;5048466;28;20415;-72
2022/10/12 01:20:07;;;;;;;58.13;28.70;;;12.30;99.90;;;;;;5049039;28;20995;-73
2022/10/12 01:22:44;;;;;;;48.10;27.13;;;12.20;99.90;;;;;;5049100;28;20447;-72
2022/10/12 01:25:37;;;;;;;50.77;26.73;;;12.20;99.90;;;;;;5047242;28;20202;-74
2022/10/12 01:28:44;;;;;;;53.13;28.30;;;12.10;99.90;;;;;;5048800;28;20511;-74
2022/10/12 01:31:22;;;;;;;75.17;29.20;;;12.10;99.90;;;;;;5048732;28;20455;-74
2022/10/12 01:33:56;;;;;;;74.77;30.80;;;12.10;99.90;;;;;;5048859;28;20385;-74
2022/10/12 01:36:31;;;;;;;70.67;30.80;;;12.10;99.90;;;;;;5048900;28;20405;-74
2022/10/12 01:39:11;;;;;;;65.30;29.40;;;12.20;99.90;;;;;;5047353;28;20414;-74
2022/10/12 01:41:49;;;;;;;64.63;28.80;;;12.20;99.90;;;;;;5049103;28;20413;-74
2022/10/12 01:44:23;;;;;;;52.33;26.47;;;12.30;99.90;;;;;;5048692;28;20437;-74
2022/10/12 01:46:50;;;;;;;99.07;31.43;;;12.20;99.90;;;;;;5048912;28;20506;-74
2022/10/12 01:49:21;;;;;;;387.27;39.87;;;12.10;99.90;;;;;;5048684;28;20476;-75
2022/10/12 01:52:08;;;;;;;362.07;37.50;;;12.10;99.90;;;;;;5048799;28;20505;-74
2022/10/12 01:55:02;;;;;;;106.57;31.87;;;12.10;99.90;;;;;;5048491;28;20821;-74
2022/10/12 01:57:49;;;;;;;73.93;30.80;;;12.10;99.90;;;;;;5048489;28;20433;-74
2022/10/12 02:00:15;;;;;;;76.33;32.00;;;12.20;99.90;;;;;;5047246;28;20472;-75
2022/10/12 02:02:57;;;;;;;85.00;33.17;;;12.20;99.90;;;;;;5047050;28;20420;-75
2022/10/12 02:05:41;;;;;;;108.13;32.90;;;12.30;99.90;;;;;;5048378;28;20444;-73
2022/10/12 02:08:20;;;;;;;145.23;35.27;;;12.20;99.90;;;;;;5048663;28;20441;-74
2022/10/12 02:10:54;;;;;;;126.10;33.33;;;12.20;99.90;;;;;;5048381;28;20972;-74
2022/10/12 02:13:23;;;;;;;113.90;33.10;;;12.20;99.90;;;;;;5048553;28;20503;-74
2022/10/12 02:15:50;;;;;;;361.83;39.07;;;12.20;99.90;;;;;;5050828;28;20432;-74
2022/10/12 02:18:18;;;;;;;228.57;34.90;;;12.10;99.90;;;;;;5051280;28;20424;-74
2022/10/12 02:20:46;;;;;;;393.10;40.20;;;12.10;99.90;;;;;;5051032;28;20489;-74
2022/10/12 02:23:13;;;;;;;178.83;34.87;;;12.10;99.90;;;;;;5051270;28;20451;-73
2022/10/12 02:25:40;;;;;;;207.53;34.40;;;12.20;99.90;;;;;;5052338;28;21207;-74
2022/10/12 02:28:13;;;;;;;131.37;31.30;;;12.20;99.90;;;;;;5052498;28;20458;-75
2022/10/12 02:30:58;;;;;;;167.73;29.87;;;12.20;99.90;;;;;;5052328;28;20508;-73
2022/10/12 02:33:35;;;;;;;574.33;45.30;;;12.20;99.90;;;;;;5052632;28;20414;-74
2022/10/12 02:36:07;;;;;;;665.07;49.57;;;12.20;99.90;;;;;;5052242;28;20426;-74
2022/10/12 02:38:45;;;;;;;402.13;37.53;;;12.20;99.90;;;;;;5052376;28;20448;-74
2022/10/12 02:41:18;;;;;;;229.17;32.87;;;12.10;99.90;;;;;;5051924;28;20427;-74
2022/10/12 02:43:52;;;;;;;464.80;40.23;;;12.00;99.90;;;;;;5052279;28;20424;-74
2022/10/12 02:46:21;;;;;;;209.60;30.57;;;11.90;99.90;;;;;;5051152;28;20424;-74
2022/10/12 02:48:48;;;;;;;166.67;28.20;;;11.90;99.90;;;;;;5053107;28;20404;-74
2022/10/12 02:51:14;;;;;;;468.73;43.13;;;11.90;99.90;;;;;;5053879;28;20427;-75
2022/10/12 02:53:40;;;;;;;173.53;26.43;;;11.90;99.90;;;;;;5054228;28;20414;-74
2022/10/12 02:56:11;;;;;;;168.73;28.03;;;11.80;99.90;;;;;;5053464;28;20449;-74
2022/10/12 02:58:37;;;;;;;127.00;26.87;;;11.80;99.90;;;;;;5053848;28;20198;-75
2022/10/12 03:01:03;;;;;;;192.47;29.33;;;11.90;99.90;;;;;;5054067;28;20914;-75
2022/10/12 03:03:29;;;;;;;118.53;24.87;;;11.90;99.90;;;;;;5052276;28;20794;-75
2022/10/12 03:05:55;;;;;;;248.97;31.93;;;11.90;99.90;;;;;;5052625;28;20525;-73
2022/10/12 03:08:20;;;;;;;42.47;23.40;;;11.80;99.90;;;;;;5053867;28;20190;-73
2022/10/12 03:10:46;;;;;;;43.20;21.90;;;11.80;99.90;;;;;;5064054;28;20471;-73
2022/10/12 03:13:11;;;;;;;51.93;25.43;;;11.80;99.90;;;;;;5069148;28;20201;-73
2022/10/12 03:15:37;;;;;;;68.83;26.60;;;11.80;99.90;;;;;;5067928;28;20201;-73
2022/10/12 03:18:03;;;;;;;54.27;25.43;;;11.80;99.90;;;;;;5057130;28;20201;-73
2022/10/12 03:20:28;;;;;;;51.93;22.13;;;11.70;99.90;;;;;;5053651;28;20273;-73
2022/10/12 03:22:54;;;;;;;42.87;22.90;;;11.50;99.90;;;;;;5057305;28;20220;-73
2022/10/12 03:25:20;;;;;;;42.67;22.27;;;11.60;99.90;;;;;;5035966;28;20214;-73
2022/10/12 03:27:45;;;;;;;41.47;21.23;;;11.50;99.90;;;;;;5051676;28;20190;-75
2022/10/12 03:30:11;;;;;;;57.33;24.70;;;11.50;99.90;;;;;;5049993;28;20245;-74
2022/10/12 03:32:37;;;;;;;43.73;21.37;;;11.60;99.90;;;;;;5050034;28;20183;-73
2022/10/12 03:35:03;;;;;;;52.57;23.87;;;11.50;99.90;;;;;;5051325;28;20438;-74
2022/10/12 03:37:29;;;;;;;39.03;22.30;;;11.50;99.90;;;;;;5051999;28;20420;-75
2022/10/12 03:39:55;;;;;;;39.73;22.20;;;11.60;99.90;;;;;;5051808;28;20423;-75
2022/10/12 03:42:20;;;;;;;44.13;23.43;;;11.80;99.90;;;;;;5051128;28;20197;-75
2022/10/12 03:44:46;;;;;;;40.77;23.50;;;11.80;99.90;;;;;;5051107;28;20240;-75
2022/10/12 03:47:11;;;;;;;50.20;24.03;;;11.90;99.90;;;;;;5051216;28;20728;-75
2022/10/12 03:49:37;;;;;;;46.20;24.37;;;11.90;99.90;;;;;;5050066;28;20323;-74
2022/10/12 03:52:03;;;;;;;50.30;24.53;;;11.90;99.90;;;;;;5049729;28;20595;-73
2022/10/12 03:54:29;;;;;;;42.43;22.70;;;12.00;99.90;;;;;;5049700;28;20203;-73
2022/10/12 03:56:55;;;;;;;42.83;22.33;;;12.00;99.90;;;;;;5051099;28;20654;-74
2022/10/12 03:59:20;;;;;;;42.00;23.50;;;12.00;99.90;;;;;;5033084;28;20439;-73
2022/10/12 04:01:46;;;;;;;58.20;23.67;;;12.10;99.90;;;;;;5049737;28;20200;-78
2022/10/12 04:04:12;;;;;;;37.60;21.93;;;12.10;99.90;;;;;;5050818;28;20201;-77
2022/10/12 04:06:37;;;;;;;41.53;23.63;;;12.10;99.90;;;;;;5049640;28;20182;-77
2022/10/12 04:09:03;;;;;;;40.47;23.03;;;12.30;99.90;;;;;;5051042;28;20225;-77
2022/10/12 04:11:28;;;;;;;49.87;24.20;;;12.10;99.90;;;;;;5050591;28;20188;-77
2022/10/12 04:13:54;;;;;;;44.07;24.87;;;12.10;99.90;;;;;;5016324;28;20218;-76
2022/10/12 04:16:20;;;;;;;46.23;22.93;;;12.20;99.90;;;;;;5050763;28;20182;-76
2022/10/12 04:18:46;;;;;;;39.40;23.00;;;12.20;99.90;;;;;;5032847;28;20230;-77
2022/10/12 04:21:14;;;;;;;38.20;21.43;;;12.20;99.90;;;;;;5050527;28;20833;-77
2022/10/12 04:23:40;;;;;;;39.47;22.13;;;12.20;99.90;;;;;;5050187;28;20215;-74
2022/10/12 04:26:06;;;;;;;39.13;22.60;;;12.30;99.90;;;;;;5048295;28;20445;-77
2022/10/12 04:28:32;;;;;;;40.27;22.07;;;12.30;99.90;;;;;;5015605;28;20838;-76
2022/10/12 04:30:58;;;;;;;41.37;23.30;;;12.30;99.90;;;;;;5049844;28;20204;-77
2022/10/12 04:33:23;;;;;;;43.80;22.77;;;12.30;99.90;;;;;;5049729;28;20214;-77
2022/10/12 04:35:49;;;;;;;48.83;23.50;;;12.30;99.90;;;;;;5048346;28;20477;-76
2022/10/12 04:38:15;;;;;;;43.40;23.47;;;12.40;99.90;;;;;;5049403;28;20187;-77
2022/10/12 04:40:44;;;;;;;42.57;23.27;;;12.40;99.90;;;;;;5049776;28;20186;-77
2022/10/12 04:43:10;;;;;;;43.20;23.53;;;12.30;99.90;;;;;;5049723;28;20186;-77
2022/10/12 04:45:35;;;;;;;40.17;22.87;;;12.20;99.90;;;;;;5049485;28;20478;-77
2022/10/12 04:48:01;;;;;;;38.13;21.97;;;12.20;99.90;;;;;;5031672;28;20554;-77
2022/10/12 04:50:26;;;;;;;41.80;23.93;;;12.40;99.90;;;;;;5031598;28;20338;-77
2022/10/12 04:52:52;;;;;;;45.27;23.03;;;12.30;99.90;;;;;;5050030;28;20189;-77
2022/10/12 04:55:18;;;;;;;42.43;22.57;;;12.40;99.90;;;;;;5049898;28;20227;-77
2022/10/12 04:57:43;;;;;;;46.37;23.03;;;12.40;99.90;;;;;;5048426;28;20205;-76
2022/10/12 05:00:09;;;;;;;48.47;22.47;;;12.40;99.90;;;;;;5048714;28;20192;-76
2022/10/12 05:02:35;;;;;;;45.90;21.87;;;12.50;99.90;;;;;;5048489;28;20338;-77
2022/10/12 05:05:01;;;;;;;45.70;23.50;;;12.50;99.90;;;;;;5049554;28;20450;-76
2022/10/12 05:07:26;;;;;;;45.27;22.90;;;12.60;99.90;;;;;;5049800;28;20188;-76
2022/10/12 05:09:52;;;;;;;46.20;24.77;;;12.70;99.90;;;;;;5049819;28;20225;-77
2022/10/12 05:12:18;;;;;;;40.37;22.27;;;12.60;99.90;;;;;;5031602;28;20186;-77
2022/10/12 05:14:43;;;;;;;47.57;25.03;;;12.60;99.90;;;;;;5049841;28;20443;-77
2022/10/12 05:17:10;;;;;;;47.30;26.17;;;12.70;99.90;;;;;;5049044;28;20183;-77
2022/10/12 05:19:35;;;;;;;49.53;24.77;;;12.70;99.90;;;;;;5050156;28;20422;-76
2022/10/12 05:22:01;;;;;;;44.73;24.60;;;12.70;99.90;;;;;;5048838;28;20669;-77
2022/10/12 05:24:27;;;;;;;45.90;24.93;;;12.70;99.90;;;;;;5050102;28;20257;-76
2022/10/12 05:26:53;;;;;;;48.90;25.40;;;12.70;99.90;;;;;;5049101;28;20194;-76
2022/10/12 05:29:18;;;;;;;39.70;23.13;;;12.70;99.90;;;;;;5051271;28;20460;-77
2022/10/12 05:31:44;;;;;;;42.43;23.47;;;12.70;99.90;;;;;;5049628;28;20186;-77
2022/10/12 05:34:09;;;;;;;36.03;21.57;;;12.70;99.90;;;;;;5049425;28;20198;-77
2022/10/12 05:36:35;;;;;;;42.70;24.40;;;12.70;99.90;;;;;;5031310;28;20263;-77
2022/10/12 05:39:01;;;;;;;39.40;22.10;;;12.70;99.90;;;;;;5049345;28;20183;-77
2022/10/12 05:41:26;;;;;;;40.63;23.50;;;12.70;99.90;;;;;;5047671;28;20183;-77
2022/10/12 05:43:52;;;;;;;42.23;22.40;;;12.70;99.90;;;;;;5047790;28;20191;-77
2022/10/12 05:46:18;;;;;;;37.83;23.37;;;12.80;99.90;;;;;;5047713;28;20191;-77
2022/10/12 05:48:43;;;;;;;42.37;22.90;;;12.90;99.90;;;;;;5047418;28;20890;-76
2022/10/12 05:51:09;;;;;;;39.57;23.07;;;12.90;99.90;;;;;;5048276;28;20425;-76
2022/10/12 05:53:36;;;;;;;41.97;24.43;;;12.80;99.90;;;;;;5048859;28;20170;-77
2022/10/12 05:56:02;;;;;;;35.23;22.17;;;12.80;99.90;;;;;;5047179;28;20785;-76
2022/10/12 05:58:29;;;;;;;38.33;23.90;;;12.80;99.90;;;;;;5048549;28;20439;-76
2022/10/12 06:01:06;;;;;;;48.57;25.83;;;12.80;99.90;;;;;;5047529;28;20237;-76
2022/10/12 06:03:32;;;;;;;43.07;24.10;;;12.80;99.90;;;;;;5048674;28;20429;-76
2022/10/12 06:05:57;;;;;;;43.60;24.67;;;12.80;99.90;;;;;;5048015;28;20498;-76
2022/10/12 06:08:23;;;;;;;54.07;25.00;;;12.90;99.90;;;;;;5048461;28;20240;-76
2022/10/12 06:10:50;;;;;;;50.50;25.07;;;12.90;99.90;;;;;;5048075;28;20298;-75
2022/10/12 06:13:18;;;;;;;44.03;21.33;;;13.00;99.90;;;;;;5048171;28;20232;-77
2022/10/12 06:15:45;;;;;;;51.70;25.43;;;13.00;99.90;;;;;;5048034;28;20433;-75
2022/10/12 06:18:11;;;;;;;42.63;23.50;;;12.90;99.90;;;;;;5048174;28;20495;-76
2022/10/12 06:20:37;;;;;;;39.57;23.40;;;13.00;99.90;;;;;;5048025;28;20460;-76
2022/10/12 06:23:03;;;;;;;41.43;23.73;;;13.00;99.90;;;;;;5046680;28;20461;-77
2022/10/12 06:25:29;;;;;;;59.00;22.97;;;13.10;99.90;;;;;;5047640;28;20625;-76
2022/10/12 06:27:54;;;;;;;49.30;25.57;;;13.10;99.90;;;;;;5046597;28;20437;-76
2022/10/12 06:30:20;;;;;;;41.97;23.70;;;13.20;99.90;;;;;;5046605;28;20996;-76
2022/10/12 06:32:46;;;;;;;42.57;25.40;;;13.20;99.90;;;;;;5047761;28;20250;-76
2022/10/12 06:35:11;;;;;;;46.63;22.80;;;13.20;99.90;;;;;;5046176;28;20226;-76
2022/10/12 06:37:37;;;;;;;42.73;22.37;;;13.20;99.90;;;;;;5047711;28;20262;-76
2022/10/12 06:40:04;;;;;;;33.53;20.80;;;13.20;99.90;;;;;;5047894;28;20729;-75
2022/10/12 06:42:30;;;;;;;39.80;21.50;;;13.30;99.90;;;;;;5047866;28;20250;-77
2022/10/12 06:44:56;;;;;;;39.60;22.27;;;13.30;99.90;;;;;;5047708;28;20531;-75
2022/10/12 06:47:21;;;;;;;31.27;19.77;;;13.30;99.90;;;;;;5046349;28;20194;-76
2022/10/12 06:49:47;;;;;;;32.83;18.33;;;13.20;99.90;;;;;;5047690;28;20755;-76
2022/10/12 06:52:12;;;;;;;35.23;19.00;;;13.20;99.90;;;;;;5047716;28;20184;-76
2022/10/12 06:54:40;;;;;;;32.60;17.37;;;13.30;99.90;;;;;;5029903;28;20634;-76
2022/10/12 06:57:05;;;;;;;29.93;17.43;;;13.30;99.90;;;;;;5047610;28;20267;-76
2022/10/12 06:59:31;;;;;;;39.40;18.30;;;13.40;99.90;;;;;;5047844;28;20513;-76
2022/10/12 07:01:57;;;;;;;30.67;17.33;;;13.40;99.90;;;;;;5050250;28;20276;-76
2022/10/12 07:04:22;;;;;;;29.67;16.57;;;13.40;99.90;;;;;;5051144;28;20212;-76
2022/10/12 07:06:48;;;;;;;31.50;17.30;;;13.50;99.90;;;;;;5051383;28;20191;-76
2022/10/12 07:09:15;;;;;;;25.87;17.17;;;13.50;99.90;;;;;;5051518;28;20214;-76
2022/10/12 07:11:40;;;;;;;29.43;16.30;;;13.50;99.90;;;;;;5051234;28;20178;-76
2022/10/12 07:14:06;;;;;;;29.20;16.90;;;13.50;99.90;;;;;;5051301;28;20421;-76
2022/10/12 07:16:31;;;;;;;33.57;16.93;;;13.60;99.90;;;;;;5051438;28;20175;-76
2022/10/12 07:18:57;;;;;;;24.20;14.27;;;13.60;99.90;;;;;;5049953;28;20188;-76
2022/10/12 07:21:23;;;;;;;24.60;14.30;;;13.60;99.90;;;;;;5049547;28;20647;-76
2022/10/12 07:23:48;;;;;;;28.13;14.97;;;13.60;99.90;;;;;;5049425;28;20236;-76
2022/10/12 07:26:14;;;;;;;24.77;14.67;;;13.70;99.90;;;;;;5050816;28;20195;-76
2022/10/12 07:28:39;;;;;;;22.10;13.00;;;13.60;99.90;;;;;;5032631;28;20188;-76
2022/10/12 07:31:07;;;;;;;21.10;13.47;;;13.70;99.90;;;;;;5032700;28;20195;-77
2022/10/12 07:33:34;;;;;;;21.30;13.40;;;13.80;99.90;;;;;;5049223;28;20179;-77
2022/10/12 07:36:00;;;;;;;20.23;13.30;;;13.90;99.90;;;;;;5049767;28;20466;-77
2022/10/12 07:38:26;;;;;;;20.67;12.63;;;14.00;99.90;;;;;;5051520;28;20418;-76
2022/10/12 07:40:53;;;;;;;22.50;13.80;;;14.00;99.90;;;;;;5049090;28;20425;-76
2022/10/12 07:43:19;;;;;;;23.43;13.60;;;14.10;99.90;;;;;;5050872;28;20862;-76
2022/10/12 07:45:44;;;;;;;29.00;13.37;;;14.10;99.90;;;;;;5050294;28;21016;-76
2022/10/12 07:48:11;;;;;;;30.70;15.47;;;14.10;99.90;;;;;;5050441;28;20437;-75
2022/10/12 07:50:38;;;;;;;23.63;13.47;;;14.10;99.90;;;;;;5050198;28;20685;-76
2022/10/12 07:53:03;;;;;;;23.13;13.70;;;14.20;99.90;;;;;;5050270;28;20418;-77
2022/10/12 07:55:30;;;;;;;22.23;12.80;;;14.10;99.90;;;;;;5050042;28;20446;-76
2022/10/12 07:58:00;;;;;;;25.73;12.50;;;14.20;99.90;;;;;;5050383;28;20289;-77
2022/10/12 08:00:27;;;;;;;27.13;13.10;;;14.10;99.90;;;;;;5049062;28;20449;-76
2022/10/12 08:02:53;;;;;;;20.57;11.20;;;14.20;99.90;;;;;;5048682;28;20442;-77
2022/10/12 08:05:22;;;;;;;28.03;14.33;;;14.00;99.90;;;;;;5048620;28;20454;-76
2022/10/12 08:07:48;;;;;;;34.83;15.60;;;14.00;99.90;;;;;;5048976;28;20438;-76
2022/10/12 08:10:14;;;;;;;25.23;14.37;;;14.10;99.90;;;;;;5050219;28;20919;-77
2022/10/12 08:12:40;;;;;;;29.17;15.20;;;14.10;99.90;;;;;;5049871;28;20427;-76
2022/10/12 08:15:06;;;;;;;25.43;14.80;;;13.90;99.90;;;;;;5048585;28;20478;-76
2022/10/12 08:17:31;;;;;;;29.27;15.70;;;13.90;99.90;;;;;;5050308;28;20188;-76
2022/10/12 08:19:57;;;;;;;32.83;16.60;;;13.90;99.90;;;;;;5048614;28;20463;-77
2022/10/12 08:22:23;;;;;;;28.67;16.03;;;13.90;99.90;;;;;;5049731;28;20551;-76
2022/10/12 08:24:48;;;;;;;30.77;15.90;;;14.00;99.90;;;;;;5049505;28;20256;-76
2022/10/12 08:27:14;;;;;;;27.67;16.47;;;14.10;99.90;;;;;;5049780;28;20180;-76
2022/10/12 08:29:39;;;;;;;28.20;15.43;;;14.10;99.90;;;;;;5050314;28;20316;-77
2022/10/12 08:32:06;;;;;;;23.80;14.20;;;14.30;99.90;;;;;;5051248;28;20180;-74
2022/10/12 08:34:32;;;;;;;30.00;14.90;;;14.20;99.90;;;;;;5049285;28;20740;-77
2022/10/12 08:37:01;;;;;;;26.30;14.40;;;14.30;99.90;;;;;;5049526;28;20513;-76
2022/10/12 08:39:26;;;;;;;30.80;15.63;;;14.30;99.90;;;;;;5031795;28;20219;-76
2022/10/12 08:42:10;;;;;;;36.63;17.20;;;14.40;99.90;;;;;;5050551;28;21283;-75
2022/10/12 08:45:11;;;;;;;32.70;17.30;;;14.40;99.90;;;;;;5050069;28;20275;-76
2022/10/12 08:47:41;;;;;;;25.03;14.63;;;14.50;99.90;;;;;;5048994;28;20472;-76
2022/10/12 08:50:16;;;;;;;24.80;15.23;;;14.60;99.90;;;;;;5047491;28;20466;-76
2022/10/12 08:53:22;;;;;;;28.20;14.73;;;14.50;99.90;;;;;;5049330;28;20415;-76
2022/10/12 08:55:48;;;;;;;31.90;15.97;;;14.50;99.90;;;;;;5046652;28;20531;-76
2022/10/12 08:58:16;;;;;;;26.87;14.90;;;14.50;99.90;;;;;;5048578;28;20450;-76
2022/10/12 09:00:45;;;;;;;31.10;15.40;;;14.50;99.90;;;;;;5049003;28;20192;-76
2022/10/12 09:03:45;;;;;;;36.20;16.60;;;14.50;99.90;;;;;;5049849;28;20462;-75
2022/10/12 09:06:19;;;;;;;25.90;15.30;;;14.50;99.90;;;;;;5049220;28;20495;-75
2022/10/12 09:09:13;;;;;;;26.93;14.70;;;14.40;99.90;;;;;;5047441;28;20891;-76
2022/10/12 09:11:57;;;;;;;25.63;14.43;;;14.50;99.90;;;;;;5048908;28;20923;-76
2022/10/12 09:14:31;;;;;;;25.97;14.50;;;14.50;99.90;;;;;;5048843;28;20445;-76
2022/10/12 09:16:58;;;;;;;26.67;15.40;;;14.60;99.90;;;;;;5048594;28;20887;-76
2022/10/12 09:19:31;;;;;;;21.63;13.30;;;14.40;99.90;;;;;;5048954;28;20853;-76
2022/10/12 09:21:57;;;;;;;30.97;15.40;;;14.40;99.90;;;;;;5048823;28;20869;-75
2022/10/12 09:24:26;;;;;;;26.63;14.97;;;14.40;99.90;;;;;;5048322;28;20433;-76
2022/10/12 09:26:57;;;;;;;23.30;13.07;;;14.40;99.90;;;;;;5048702;28;20211;-76
2022/10/12 09:29:23;;;;;;;24.40;15.00;;;14.60;99.90;;;;;;5047753;28;20851;-76
2022/10/12 09:32:07;;;;;;;25.93;14.10;;;14.50;99.90;;;;;;5048953;28;20414;-76
2022/10/12 09:34:32;;;;;;;23.90;13.50;;;14.60;99.90;;;;;;5048507;28;20199;-76
2022/10/12 09:37:01;;;;;;;27.10;13.83;;;14.70;99.90;;;;;;5047321;28;20449;-76
2022/10/12 09:39:36;;;;;;;22.70;12.47;;;14.80;99.90;;;;;;5047213;28;20234;-76
2022/10/12 09:42:03;;;;;;;25.90;12.90;;;14.60;99.90;;;;;;5047551;28;20424;-76
2022/10/12 09:44:34;;;;;;;20.20;12.20;;;14.50;99.90;;;;;;5048428;28;20465;-76
2022/10/12 09:47:02;;;;;;;33.30;12.97;;;14.40;99.90;;;;;;5049476;28;20422;-75
2022/10/12 09:49:40;;;;;;;24.20;12.23;;;14.30;99.90;;;;;;5046581;28;20468;-73
2022/10/12 09:52:06;;;;;;;23.93;12.40;;;14.40;99.90;;;;;;5048231;28;20790;-73
2022/10/12 09:54:32;;;;;;;19.67;12.47;;;14.50;99.90;;;;;;5048255;28;20430;-73
2022/10/12 09:56:58;;;;;;;22.87;12.27;;;14.50;99.90;;;;;;5048040;28;20422;-74
2022/10/12 09:59:29;;;;;;;26.33;13.23;;;14.60;99.90;;;;;;5048579;28;20469;-73
2022/10/12 10:02:03;;;;;;;20.07;11.70;;;14.80;99.90;;;;;;5048618;28;20491;-73
2022/10/12 10:04:29;;;;;;;24.73;11.80;;;14.70;99.90;;;;;;5046905;28;20441;-73
2022/10/12 10:07:32;;;;;;;23.27;13.60;;;14.70;99.90;;;;;;5048660;28;21070;-73
2022/10/12 10:10:20;;;;;;;21.93;12.20;;;14.60;99.90;;;;;;5048393;28;20215;-73
2022/10/12 10:12:50;;;;;;;28.77;12.70;;;14.50;99.90;;;;;;5048088;28;21147;-73
2022/10/12 10:15:32;;;;;;;25.90;14.23;;;14.50;99.90;;;;;;5047898;28;20433;-74
2022/10/12 10:18:00;;;;;;;28.00;14.20;;;14.60;99.90;;;;;;5046661;28;20422;-74
2022/10/12 10:20:33;;;;;;;24.40;13.30;;;14.80;99.90;;;;;;5047952;28;20414;-74
2022/10/12 10:23:01;;;;;;;21.63;12.03;;;14.70;99.90;;;;;;5048113;28;20410;-75
2022/10/12 10:25:26;;;;;;;19.07;12.93;;;14.80;99.90;;;;;;5048269;28;20871;-74
2022/10/12 10:28:09;;;;;;;26.40;13.07;;;14.70;99.90;;;;;;5048104;28;20450;-75
2022/10/12 10:30:35;;;;;;;22.67;13.40;;;14.70;99.90;;;;;;5048185;28;20199;-74
2022/10/12 10:33:21;;;;;;;24.93;12.47;;;14.80;99.90;;;;;;5046481;28;20819;-76
2022/10/12 10:36:03;;;;;;;23.80;12.90;;;14.80;99.90;;;;;;5047144;28;20265;-75
2022/10/12 10:38:47;;;;;;;24.80;11.90;;;14.80;99.90;;;;;;5050964;28;20977;-74
2022/10/12 10:41:16;;;;;;;20.27;12.37;;;14.80;99.90;;;;;;5052757;28;20418;-75
2022/10/12 10:43:45;;;;;;;23.27;12.10;;;14.90;99.90;;;;;;5052474;28;20421;-74
2022/10/12 10:46:14;;;;;;;17.63;10.90;;;15.00;99.90;;;;;;5052353;28;20436;-74
2022/10/12 10:49:05;;;;;;;19.47;11.37;;;15.10;99.90;;;;;;5052495;28;20431;-74
2022/10/12 10:51:50;;;;;;;22.33;10.53;;;15.30;99.90;;;;;;5050698;28;20427;-75
2022/10/12 10:54:28;;;;;;;18.00;11.10;;;15.40;99.90;;;;;;5050766;28;20861;-75
2022/10/12 10:57:19;;;;;;;22.53;11.73;;;15.50;99.90;;;;;;5050587;28;20412;-74
2022/10/12 10:59:51;;;;;;;23.67;12.20;;;15.40;99.90;;;;;;5051990;28;20505;-75
2022/10/12 11:02:37;;;;;;;25.87;11.37;;;15.30;99.90;;;;;;5051705;28;20410;-76
2022/10/12 11:05:17;;;;;;;23.03;12.00;;;15.40;99.90;;;;;;5050414;28;20438;-77
2022/10/12 11:07:52;;;;;;;18.43;11.20;;;15.30;99.90;;;;;;5050700;28;20438;-76
2022/10/12 11:10:27;;;;;;;19.43;11.40;;;15.30;99.90;;;;;;5051963;28;21217;-77
2022/10/12 11:12:59;;;;;;;25.43;12.20;;;15.40;99.90;;;;;;5052180;28;20411;-76
2022/10/12 11:15:33;;;;;;;24.60;11.87;;;15.30;99.90;;;;;;5051712;28;20468;-76
2022/10/12 11:18:26;;;;;;;21.83;12.20;;;15.30;99.90;;;;;;5051939;28;20518;-77
2022/10/12 11:21:00;;;;;;;25.43;13.10;;;15.40;99.90;;;;;;5052113;28;20445;-76
2022/10/12 11:23:48;;;;;;;21.20;10.87;;;15.50;99.90;;;;;;5051673;28;20828;-76
2022/10/12 11:26:27;;;;;;;19.57;9.90;;;15.60;99.90;;;;;;5051440;28;20446;-76
2022/10/12 11:28:56;;;;;;;30.47;11.60;;;15.70;99.90;;;;;;5051887;28;20926;-76
2022/10/12 11:31:38;;;;;;;25.70;11.07;;;15.70;99.90;;;;;;5051556;28;20429;-76
2022/10/12 11:34:07;;;;;;;26.70;11.43;;;15.60;99.90;;;;;;5050896;28;20480;-76
2022/10/12 11:36:38;;;;;;;19.13;10.33;;;15.80;99.90;;;;;;5050905;28;20422;-75
2022/10/12 11:39:23;;;;;;;17.83;10.00;;;15.90;99.90;;;;;;5050593;28;20424;-76
2022/10/12 11:41:52;;;;;;;20.27;11.90;;;15.90;99.90;;;;;;5050615;28;20419;-76
2022/10/12 11:44:26;;;;;;;17.80;10.17;;;16.00;99.90;;;;;;5050490;28;20443;-76
2022/10/12 11:47:03;;;;;;;22.57;9.33;;;16.00;99.90;;;;;;5048881;28;20534;-77
2022/10/12 11:49:36;;;;;;;22.43;10.50;;;16.00;99.90;;;;;;5048905;28;20470;-77
2022/10/12 11:52:08;;;;;;;20.00;10.90;;;16.10;99.90;;;;;;5051016;28;20753;-76
2022/10/12 11:54:51;;;;;;;20.80;10.30;;;16.10;99.90;;;;;;5049417;28;20451;-77
2022/10/12 11:57:23;;;;;;;19.63;11.00;;;16.10;99.90;;;;;;5050485;28;20436;-76
2022/10/12 11:59:54;;;;;;;18.87;11.17;;;16.20;99.90;;;;;;5050792;28;20448;-76
2022/10/12 12:02:59;;;;;;;17.80;9.57;;;16.20;99.90;;;;;;5050423;28;21023;-75
2022/10/12 12:05:30;;;;;;;16.70;10.20;;;16.20;99.90;;;;;;5028888;28;20505;-76
2022/10/12 12:07:56;;;;;;;17.40;11.20;;;16.20;99.90;;;;;;5050428;28;20443;-77
2022/10/12 12:10:29;;;;;;;20.83;11.93;;;16.20;99.90;;;;;;5050233;28;20567;-77
2022/10/12 12:13:13;;;;;;;20.67;11.10;;;16.00;99.90;;;;;;5050019;28;20169;-77
2022/10/12 12:15:48;;;;;;;23.20;12.17;;;16.10;99.90;;;;;;5049952;28;20435;-76
2022/10/12 12:18:23;;;;;;;21.10;11.77;;;16.20;99.90;;;;;;5049571;28;20534;-76
2022/10/12 12:20:48;;;;;;;19.37;10.90;;;16.20;99.90;;;;;;5049503;28;20571;-76
2022/10/12 12:23:24;;;;;;;19.03;10.43;;;16.30;99.90;;;;;;5049378;28;20505;-76
2022/10/12 12:26:08;;;;;;;31.13;12.37;;;16.30;99.90;;;;;;5049437;28;20787;-76
2022/10/12 12:28:36;;;;;;;23.90;12.20;;;16.30;99.90;;;;;;5049357;28;20437;-76
2022/10/12 12:31:11;;;;;;;25.37;13.03;;;16.30;99.90;;;;;;5048252;28;20472;-76
2022/10/12 12:33:41;;;;;;;21.23;10.70;;;16.30;99.90;;;;;;5048208;28;20494;-76
2022/10/12 12:36:25;;;;;;;27.80;12.33;;;16.20;99.90;;;;;;5049520;28;21096;-76
2022/10/12 12:38:51;;;;;;;23.37;13.97;;;16.20;99.90;;;;;;5049474;28;20508;-73
2022/10/12 12:41:20;;;;;;;22.70;11.03;;;16.30;99.90;;;;;;5049430;28;20512;-75